Time;durP1;ratioP1;P1;durP2;ratioP2;P2;SDS_P1;SDS_P2;PMS_P1;PMS_P2;Temp;Humidity;BMP_temperature;BMP_pressure;BME280_temperature;BME280_humidity;BME280_pressure;Samples;Min_cycle;Max_cycle;Signal;HPM_P1;HPM_P2
2024/01/23 00:01:53;;;;;;;181.13;65.70;;;;;2.80;97209.00;;;;5097740;28;20429;-65
2024/01/23 00:04:42;;;;;;;190.90;67.80;;;;;3.00;97212.00;;;;5096360;28;20503;-66
2024/01/23 00:07:31;;;;;;;190.00;68.27;;;;;3.40;97226.00;;;;5096726;28;20469;-66
2024/01/23 00:10:22;;;;;;;195.50;71.20;;;;;3.10;97210.00;;;;5091074;28;20439;-66
2024/01/23 00:13:13;;;;;;;201.50;72.30;;;;;2.50;97220.00;;;;5090951;28;20444;-67
2024/01/23 00:16:02;;;;;;;185.17;65.53;;;;;3.00;97219.00;;;;5104603;28;20421;-66
2024/01/23 00:18:51;;;;;;;189.30;66.70;;;;;3.50;97224.00;;;;5102427;28;20431;-66
2024/01/23 00:21:40;;;;;;;194.67;67.77;;;;;3.10;97230.00;;;;5094712;28;20422;-66
2024/01/23 00:24:29;;;;;;;200.00;70.20;;;;;3.00;97234.00;;;;5097904;28;20421;-66
2024/01/23 00:27:18;;;;;;;200.93;71.57;;;;;2.80;97230.00;;;;5094834;28;20420;-65
2024/01/23 00:30:10;;;;;;;205.70;73.00;;;;;3.20;97244.00;;;;5106211;28;21145;-66
2024/01/23 00:33:00;;;;;;;199.80;66.17;;;;;3.50;97244.00;;;;5107777;28;20435;-66
2024/01/23 00:35:49;;;;;;;198.30;68.03;;;;;3.60;97237.00;;;;5094225;28;20819;-66
2024/01/23 00:38:38;;;;;;;213.67;74.03;;;;;3.70;97238.00;;;;5096194;28;20425;-65
2024/01/23 00:41:27;;;;;;;204.80;68.40;;;;;3.50;97239.00;;;;5094046;28;20431;-65
2024/01/23 00:44:17;;;;;;;202.60;67.43;;;;;3.20;97238.00;;;;5094479;28;20424;-65
2024/01/23 00:47:07;;;;;;;215.43;72.57;;;;;2.90;97240.00;;;;5096760;28;20426;-65
2024/01/23 00:49:56;;;;;;;204.70;69.23;;;;;2.60;97244.00;;;;5095290;28;20438;-66
2024/01/23 00:52:45;;;;;;;212.60;71.80;;;;;2.70;97230.00;;;;5099149;28;20437;-65
2024/01/23 00:55:35;;;;;;;214.33;71.00;;;;;2.90;97241.00;;;;5098958;28;20424;-66
2024/01/23 00:58:24;;;;;;;216.43;69.60;;;;;3.10;97256.00;;;;5093355;28;20438;-66
2024/01/23 01:01:13;;;;;;;230.67;69.63;;;;;3.40;97254.00;;;;5097180;28;20537;-66
2024/01/23 01:04:04;;;;;;;240.00;69.73;;;;;3.30;97242.00;;;;5096144;28;20938;-65
2024/01/23 01:06:53;;;;;;;304.23;111.60;;;;;2.70;97233.00;;;;5100097;28;20429;-66
2024/01/23 01:09:42;;;;;;;261.47;82.47;;;;;2.90;97241.00;;;;5092756;28;20445;-66
2024/01/23 01:12:33;;;;;;;307.37;92.07;;;;;2.90;97248.00;;;;5097171;28;20466;-66
2024/01/23 01:15:22;;;;;;;244.53;72.57;;;;;3.00;97263.00;;;;5095861;28;20453;-66
2024/01/23 01:18:12;;;;;;;282.53;76.83;;;;;2.90;97262.00;;;;5104152;28;20439;-65
2024/01/23 01:21:02;;;;;;;247.67;74.70;;;;;3.30;97264.00;;;;5098487;28;20977;-66
2024/01/23 01:23:52;;;;;;;251.87;70.70;;;;;3.10;97255.00;;;;5097916;28;20422;-65
2024/01/23 01:26:41;;;;;;;243.03;81.80;;;;;3.30;97259.00;;;;5103259;28;20479;-65
2024/01/23 01:29:30;;;;;;;228.80;73.10;;;;;3.20;97255.00;;;;5097550;28;20437;-65
2024/01/23 01:32:19;;;;;;;298.03;97.23;;;;;3.40;97257.00;;;;5096448;28;20443;-66
2024/01/23 01:35:09;;;;;;;318.80;106.43;;;;;3.40;97256.00;;;;5099070;28;20427;-66
2024/01/23 01:37:59;;;;;;;315.30;98.10;;;;;3.30;97249.00;;;;5097983;28;20425;-65
2024/01/23 01:40:48;;;;;;;168.37;74.27;;;;;3.40;97249.00;;;;5096160;28;21006;-66
2024/01/23 01:43:37;;;;;;;232.43;68.73;;;;;3.40;97254.00;;;;5099360;28;20429;-66
2024/01/23 01:46:27;;;;;;;328.17;116.50;;;;;2.80;97254.00;;;;5101131;28;20417;-66
2024/01/23 01:49:16;;;;;;;325.90;103.07;;;;;2.90;97262.00;;;;5098961;28;20453;-65
2024/01/23 01:52:05;;;;;;;315.33;71.30;;;;;3.20;97247.00;;;;5098782;28;20417;-65
2024/01/23 01:54:56;;;;;;;303.40;78.73;;;;;3.40;97265.00;;;;5101337;28;20466;-66
2024/01/23 01:57:45;;;;;;;44.60;32.70;;;;;3.40;97266.00;;;;5096099;28;20436;-66
2024/01/23 02:00:34;;;;;;;305.27;71.87;;;;;3.00;97244.00;;;;5104915;28;20514;-66
2024/01/23 02:03:23;;;;;;;308.77;80.07;;;;;3.20;97255.00;;;;5098998;28;20452;-66
2024/01/23 02:06:13;;;;;;;320.37;89.10;;;;;3.00;97257.00;;;;5096555;28;20473;-66
2024/01/23 02:09:02;;;;;;;320.73;103.00;;;;;3.20;97257.00;;;;5101174;28;20410;-66
2024/01/23 02:12:01;;;;;;;279.20;72.07;;;;;3.10;97255.00;;;;5102404;28;20427;-66
2024/01/23 02:14:50;;;;;;;304.47;70.33;;;;;2.80;97246.00;;;;5099359;28;20457;-66
2024/01/23 02:17:40;;;;;;;314.43;82.13;;;;;2.90;97252.00;;;;5096686;28;20436;-66
2024/01/23 02:20:29;;;;;;;308.07;71.27;;;;;2.70;97253.00;;;;5092368;28;20474;-66
2024/01/23 02:23:18;;;;;;;311.73;71.27;;;;;2.00;97236.00;;;;5092987;28;20926;-67
2024/01/23 02:26:09;;;;;;;316.10;72.83;;;;;2.40;97236.00;;;;5095561;28;20425;-66
2024/01/23 02:28:58;;;;;;;316.10;71.87;;;;;2.50;97255.00;;;;5105839;28;20420;-66
2024/01/23 02:31:47;;;;;;;309.37;67.70;;;;;2.30;97247.00;;;;5102137;28;20818;-67
2024/01/23 02:34:36;;;;;;;315.03;70.80;;;;;2.20;97249.00;;;;5101662;28;20428;-66
2024/01/23 02:37:26;;;;;;;313.43;71.27;;;;;2.40;97259.00;;;;5097465;28;20426;-65
2024/01/23 02:40:15;;;;;;;316.40;71.60;;;;;2.40;97236.00;;;;5096764;28;21189;-66
2024/01/23 02:43:05;;;;;;;311.90;70.33;;;;;2.80;97255.00;;;;5094703;28;20421;-66
2024/01/23 02:45:54;;;;;;;310.17;69.37;;;;;2.90;97244.00;;;;5105839;28;20420;-66
2024/01/23 02:48:44;;;;;;;314.90;71.50;;;;;2.90;97254.00;;;;5094326;28;20417;-66
2024/01/23 02:51:33;;;;;;;314.10;72.20;;;;;3.00;97253.00;;;;5098911;28;20417;-66
2024/01/23 02:54:22;;;;;;;317.97;73.40;;;;;2.90;97246.00;;;;5098963;28;20845;-65
2024/01/23 02:57:12;;;;;;;317.13;72.13;;;;;2.80;97263.00;;;;5097203;28;20440;-65
2024/01/23 03:00:03;;;;;;;309.60;68.47;;;;;2.50;97249.00;;;;5092660;28;20468;-66
2024/01/23 03:02:52;;;;;;;309.83;68.93;;;;;2.50;97262.00;;;;5095002;28;20957;-66
2024/01/23 03:05:41;;;;;;;311.70;70.33;;;;;2.60;97256.00;;;;5095612;28;20492;-66
2024/01/23 03:08:30;;;;;;;311.23;72.20;;;;;2.80;97258.00;;;;5097603;28;20428;-66
2024/01/23 03:11:19;;;;;;;313.93;71.67;;;;;2.60;97256.00;;;;5096843;28;20413;-65
2024/01/23 03:14:08;;;;;;;314.70;70.23;;;;;2.60;97259.00;;;;5095967;28;20435;-66
2024/01/23 03:17:03;;;;;;;310.03;69.37;;;;;2.60;97248.00;;;;5098117;28;20425;-66
2024/01/23 03:19:52;;;;;;;305.23;68.23;;;;;2.70;97262.00;;;;5092142;28;20460;-66
2024/01/23 03:22:41;;;;;;;313.77;72.87;;;;;2.90;97267.00;;;;5096452;28;20435;-66
2024/01/23 03:25:31;;;;;;;313.63;88.83;;;;;2.90;97276.00;;;;5098089;28;20965;-65
2024/01/23 03:28:20;;;;;;;309.33;77.60;;;;;3.00;97277.00;;;;5100446;28;20819;-66
2024/01/23 03:31:09;;;;;;;313.17;72.43;;;;;3.20;97280.00;;;;5095971;28;20456;-66
2024/01/23 03:34:00;;;;;;;317.30;79.93;;;;;2.90;97272.00;;;;5101956;28;20420;-66
2024/01/23 03:36:49;;;;;;;307.70;67.03;;;;;3.10;97267.00;;;;5099579;28;20426;-66
2024/01/23 03:39:38;;;;;;;295.53;70.50;;;;;3.20;97267.00;;;;5092081;28;20445;-66
2024/01/23 03:42:28;;;;;;;305.30;69.57;;;;;3.10;97254.00;;;;5097960;28;20468;-65
2024/01/23 03:45:17;;;;;;;317.20;73.17;;;;;2.90;97260.00;;;;5091761;28;20421;-66
2024/01/23 03:48:06;;;;;;;306.07;67.90;;;;;2.70;97265.00;;;;5098768;28;20421;-65
2024/01/23 03:50:57;;;;;;;306.60;67.27;;;;;2.80;97273.00;;;;5093982;28;20444;-66
2024/01/23 03:53:46;;;;;;;306.77;67.63;;;;;2.70;97265.00;;;;5093839;28;20425;-65
2024/01/23 03:56:35;;;;;;;313.33;70.57;;;;;2.40;97269.00;;;;5098433;28;20421;-65
2024/01/23 03:59:24;;;;;;;312.60;70.93;;;;;3.00;97288.00;;;;5098617;28;20453;-65
2024/01/23 04:02:14;;;;;;;304.63;73.80;;;;;3.10;97288.00;;;;5094886;28;20468;-65
2024/01/23 04:05:04;;;;;;;318.00;75.07;;;;;3.30;97282.00;;;;5090602;28;20965;-65
2024/01/23 04:07:54;;;;;;;306.83;67.27;;;;;3.10;97286.00;;;;5099339;28;20444;-65
2024/01/23 04:10:43;;;;;;;246.67;70.20;;;;;3.20;97285.00;;;;5097673;28;20835;-65
2024/01/23 04:13:32;;;;;;;308.60;68.73;;;;;3.30;97293.00;;;;5102561;28;20416;-65
2024/01/23 04:16:21;;;;;;;317.50;73.97;;;;;3.20;97288.00;;;;5090077;28;20813;-65
2024/01/23 04:19:10;;;;;;;314.33;72.60;;;;;2.80;97288.00;;;;5096187;28;20452;-65
2024/01/23 04:22:00;;;;;;;308.10;68.47;;;;;2.60;97281.00;;;;5107005;28;20468;-65
2024/01/23 04:24:50;;;;;;;315.60;72.73;;;;;3.10;97286.00;;;;5100440;28;20421;-65
2024/01/23 04:27:39;;;;;;;308.70;70.97;;;;;3.20;97312.00;;;;5096936;28;20955;-65
2024/01/23 04:30:29;;;;;;;303.77;67.67;;;;;3.00;97315.00;;;;5094098;28;20517;-65
2024/01/23 04:33:18;;;;;;;308.67;70.13;;;;;3.30;97317.00;;;;5092328;28;20421;-65
2024/01/23 04:36:07;;;;;;;312.63;71.33;;;;;3.40;97341.00;;;;5094678;28;20837;-65
2024/01/23 04:38:56;;;;;;;302.63;70.17;;;;;3.40;97325.00;;;;5097555;28;20433;-65
2024/01/23 04:41:47;;;;;;;311.17;71.07;;;;;3.30;97339.00;;;;5103673;28;21017;-65
2024/01/23 04:44:36;;;;;;;314.27;73.47;;;;;3.30;97321.00;;;;5093550;28;21277;-65
2024/01/23 04:47:25;;;;;;;314.00;72.43;;;;;3.20;97306.00;;;;5095502;28;20417;-65
2024/01/23 04:50:14;;;;;;;314.67;72.27;;;;;3.30;97320.00;;;;5096785;28;20483;-65
2024/01/23 04:53:03;;;;;;;310.63;69.77;;;;;3.00;97308.00;;;;5091059;28;20420;-66
2024/01/23 04:55:52;;;;;;;306.10;67.83;;;;;3.20;97312.00;;;;5093078;28;20421;-65
2024/01/23 04:58:43;;;;;;;313.10;72.40;;;;;3.00;97329.00;;;;5094215;28;20955;-64
2024/01/23 05:01:32;;;;;;;310.83;69.47;;;;;3.20;97315.00;;;;5120005;23;20485;-68
2024/01/23 05:04:21;;;;;;;314.60;71.37;;;;;3.00;97338.00;;;;5094844;28;20439;-68
2024/01/23 05:07:10;;;;;;;313.50;71.80;;;;;2.60;97318.00;;;;5095712;28;20436;-68
2024/01/23 05:10:00;;;;;;;306.33;69.00;;;;;3.00;97330.00;;;;5093769;28;20457;-68
2024/01/23 05:12:49;;;;;;;309.53;69.47;;;;;2.90;97355.00;;;;5080563;28;20448;-68
2024/01/23 05:15:40;;;;;;;307.70;68.67;;;;;1.90;97351.00;;;;5070957;28;20435;-68
2024/01/23 05:18:29;;;;;;;310.07;70.00;;;;;2.30;97359.00;;;;5077964;28;20454;-68
2024/01/23 05:21:19;;;;;;;307.00;68.07;;;;;2.80;97374.00;;;;5084260;28;20445;-68
2024/01/23 05:24:08;;;;;;;304.03;65.90;;;;;2.80;97388.00;;;;5082144;28;20436;-68
2024/01/23 05:26:57;;;;;;;307.53;68.27;;;;;2.60;97381.00;;;;5078925;28;20468;-69
2024/01/23 05:29:47;;;;;;;303.37;65.93;;;;;2.80;97398.00;;;;5080055;28;20971;-68
2024/01/23 05:32:38;;;;;;;315.90;73.10;;;;;2.60;97394.00;;;;5079470;28;20445;-69
2024/01/23 05:35:27;;;;;;;310.03;68.83;;;;;2.10;97391.00;;;;5082710;28;20456;-68
2024/01/23 05:38:16;;;;;;;308.37;69.20;;;;;1.90;97403.00;;;;5078950;28;20437;-68
2024/01/23 05:41:05;;;;;;;312.60;69.97;;;;;2.10;97402.00;;;;5075355;28;20446;-68
2024/01/23 05:43:56;;;;;;;304.27;67.10;;;;;2.70;97412.00;;;;5089020;28;20490;-69
2024/01/23 05:46:45;;;;;;;313.30;71.87;;;;;2.50;97425.00;;;;5074010;28;20436;-68
2024/01/23 05:49:35;;;;;;;310.40;69.90;;;;;2.60;97425.00;;;;5078257;28;20431;-68
2024/01/23 05:52:25;;;;;;;321.63;76.67;;;;;2.60;97429.00;;;;5079054;28;20433;-69
2024/01/23 05:55:14;;;;;;;319.17;74.60;;;;;2.10;97431.00;;;;5078104;28;20444;-69
2024/01/23 05:58:03;;;;;;;305.90;66.63;;;;;2.70;97434.00;;;;5080157;28;20433;-68
2024/01/23 06:00:53;;;;;;;305.73;67.37;;;;;2.70;97434.00;;;;5080672;28;20481;-68
2024/01/23 06:03:42;;;;;;;304.20;67.07;;;;;2.70;97451.00;;;;5077380;28;20523;-68
2024/01/23 06:06:32;;;;;;;314.03;71.90;;;;;2.60;97446.00;;;;5076290;28;20422;-68
2024/01/23 06:09:21;;;;;;;308.87;69.17;;;;;2.10;97432.00;;;;5086743;28;21269;-69
2024/01/23 06:12:10;;;;;;;315.00;73.07;;;;;2.40;97437.00;;;;5086179;28;20940;-68
2024/01/23 06:15:00;;;;;;;314.20;71.23;;;;;2.50;97450.00;;;;5083126;28;20449;-68
2024/01/23 06:17:49;;;;;;;310.80;70.00;;;;;2.30;97451.00;;;;5084350;28;20430;-68
2024/01/23 06:20:39;;;;;;;313.50;71.77;;;;;2.20;97455.00;;;;5084710;28;20834;-68
2024/01/23 06:23:29;;;;;;;307.43;68.47;;;;;2.20;97452.00;;;;5087178;28;20937;-69
2024/01/23 06:26:18;;;;;;;325.07;77.90;;;;;2.10;97462.00;;;;5082071;28;20926;-69
2024/01/23 06:29:07;;;;;;;307.70;68.50;;;;;1.60;97429.00;;;;5081982;28;20421;-68
2024/01/23 06:31:58;;;;;;;308.40;70.57;;;;;2.10;97440.00;;;;5085528;28;20437;-69
2024/01/23 06:34:47;;;;;;;306.87;69.20;;;;;2.40;97444.00;;;;5085235;28;20434;-69
2024/01/23 06:37:36;;;;;;;324.53;82.80;;;;;2.40;97449.00;;;;5073458;28;22212;-67
2024/01/23 06:40:27;;;;;;;405.60;141.63;;;;;2.40;97428.00;;;;5069546;28;20457;-69
2024/01/23 06:43:16;;;;;;;316.30;77.73;;;;;1.70;97423.00;;;;5046952;28;20811;-69
2024/01/23 06:46:05;;;;;;;398.57;140.43;;;;;2.50;97427.00;;;;5061560;28;20969;-68
2024/01/23 06:48:54;;;;;;;319.57;75.73;;;;;2.70;97438.00;;;;5026972;28;20479;-68
2024/01/23 06:51:44;;;;;;;390.33;132.47;;;;;2.30;97432.00;;;;5030636;28;20519;-68
2024/01/23 06:54:33;;;;;;;305.53;67.83;;;;;2.10;97435.00;;;;5079790;28;20422;-68
2024/01/23 06:57:24;;;;;;;309.67;73.30;;;;;2.30;97439.00;;;;5078133;28;20445;-68
2024/01/23 07:00:14;;;;;;;400.97;138.50;;;;;2.50;97446.00;;;;5065199;28;20481;-69
2024/01/23 07:03:03;;;;;;;348.73;100.57;;;;;2.70;97447.00;;;;5024564;28;21033;-69
2024/01/23 07:05:53;;;;;;;391.13;136.77;;;;;2.80;97460.00;;;;5032414;28;20938;-69
2024/01/23 07:08:43;;;;;;;335.87;86.57;;;;;2.30;97460.00;;;;5026986;28;20454;-68
2024/01/23 07:11:32;;;;;;;388.97;136.77;;;;;2.00;97465.00;;;;5026359;28;21009;-69
2024/01/23 07:14:23;;;;;;;326.73;80.97;;;;;2.50;97483.00;;;;5024701;28;20433;-68
2024/01/23 07:17:12;;;;;;;406.07;141.77;;;;;2.40;97476.00;;;;5033043;28;20452;-69
2024/01/23 07:20:01;;;;;;;335.47;85.37;;;;;1.90;97478.00;;;;5023271;28;21006;-68
2024/01/23 07:22:50;;;;;;;395.20;139.27;;;;;2.60;97477.00;;;;5034842;28;20473;-69
2024/01/23 07:25:39;;;;;;;311.43;70.50;;;;;2.70;97497.00;;;;5038720;28;20463;-69
2024/01/23 07:28:29;;;;;;;317.97;73.43;;;;;2.70;97493.00;;;;5068827;28;21043;-69
2024/01/23 07:31:24;;;;;;;321.60;75.40;;;;;2.20;97495.00;;;;5069246;28;20510;-69
2024/01/23 07:34:13;;;;;;;317.57;73.67;;;;;2.00;97499.00;;;;5080237;28;20437;-69
2024/01/23 07:37:02;;;;;;;309.00;70.23;;;;;2.30;97504.00;;;;5074178;28;20433;-69
2024/01/23 07:39:51;;;;;;;305.77;67.83;;;;;2.50;97516.00;;;;5080105;28;20457;-69
2024/01/23 07:42:41;;;;;;;315.20;72.47;;;;;2.40;97522.00;;;;5081496;28;20433;-68
2024/01/23 07:45:30;;;;;;;305.03;68.93;;;;;2.60;97531.00;;;;5083315;28;20442;-69
2024/01/23 07:48:20;;;;;;;316.33;72.73;;;;;2.70;97536.00;;;;5079121;28;20424;-69
2024/01/23 07:51:09;;;;;;;306.97;67.80;;;;;3.10;97558.00;;;;5076379;28;20446;-68
2024/01/23 07:53:59;;;;;;;307.17;68.60;;;;;3.30;97564.00;;;;5083740;28;20425;-69
2024/01/23 07:56:50;;;;;;;8.70;3.57;;;;;2.70;97575.00;;;;5079159;28;20523;-69
2024/01/23 07:59:40;;;;;;;15.33;6.87;;;;;3.50;97583.00;;;;5081734;28;20414;-69
2024/01/23 08:02:29;;;;;;;15.57;12.43;;;;;3.50;97588.00;;;;5072701;28;20460;-68
2024/01/23 08:05:19;;;;;;;48.07;34.70;;;;;2.30;97585.00;;;;5078964;28;20441;-69
2024/01/23 08:08:08;;;;;;;142.53;67.10;;;;;2.90;97595.00;;;;5082528;28;20457;-69
2024/01/23 08:10:58;;;;;;;314.63;74.20;;;;;2.30;97582.00;;;;5080449;28;20454;-69
2024/01/23 08:13:47;;;;;;;312.00;69.63;;;;;2.50;97592.00;;;;5083250;28;20421;-69
2024/01/23 08:16:36;;;;;;;313.87;74.90;;;;;2.40;97587.00;;;;5077820;28;20813;-69
2024/01/23 08:19:26;;;;;;;320.13;77.80;;;;;3.50;97599.00;;;;5077567;28;20433;-69
2024/01/23 08:22:16;;;;;;;48.77;35.80;;;;;3.00;97593.00;;;;5078964;28;20421;-68
2024/01/23 08:25:06;;;;;;;72.70;48.83;;;;;3.80;97605.00;;;;5080949;28;20458;-69
2024/01/23 08:27:55;;;;;;;130.07;60.93;;;;;3.40;97607.00;;;;5075712;28;20437;-68
2024/01/23 08:30:44;;;;;;;16.70;12.53;;;;;3.80;97619.00;;;;5081713;28;20986;-69
2024/01/23 08:33:34;;;;;;;14.50;7.00;;;;;3.50;97600.00;;;;5072363;28;20421;-69
2024/01/23 08:36:23;;;;;;;21.93;8.97;;;;;3.50;97596.00;;;;5081588;28;20511;-69
2024/01/23 08:39:13;;;;;;;14.03;7.63;;;;;3.70;97601.00;;;;5081695;28;20429;-68
2024/01/23 08:42:03;;;;;;;13.13;8.23;;;;;3.70;97609.00;;;;5081621;28;20441;-69
2024/01/23 08:44:55;;;;;;;10.10;7.90;;;;;4.20;97606.00;;;;5079485;28;20973;-69
2024/01/23 08:47:44;;;;;;;16.00;10.20;;;;;4.10;97605.00;;;;5075527;28;20426;-69
2024/01/23 08:50:33;;;;;;;12.63;8.00;;;;;4.80;97601.00;;;;5077902;28;20442;-69
2024/01/23 08:53:22;;;;;;;23.30;12.73;;;;;5.30;97602.00;;;;5083687;28;20433;-68
2024/01/23 08:56:12;;;;;;;14.43;10.43;;;;;5.80;97617.00;;;;5079403;28;20429;-69
2024/01/23 08:59:02;;;;;;;15.90;13.07;;;;;6.00;97624.00;;;;5084521;28;20428;-69
2024/01/23 09:01:51;;;;;;;15.07;13.97;;;;;6.10;97634.00;;;;5084120;28;21081;-68
2024/01/23 09:04:40;;;;;;;24.03;17.53;;;;;6.30;97643.00;;;;5080088;28;20223;-68
2024/01/23 09:07:29;;;;;;;23.77;15.20;;;;;6.30;97635.00;;;;5077295;28;20206;-69
2024/01/23 09:10:20;;;;;;;29.53;21.53;;;;;6.50;97621.00;;;;5080844;28;20228;-68
2024/01/23 09:13:10;;;;;;;21.27;17.53;;;;;6.60;97635.00;;;;5082459;28;20567;-69
2024/01/23 09:15:59;;;;;;;17.67;15.90;;;;;6.40;97628.00;;;;5084909;28;20206;-68
2024/01/23 09:18:49;;;;;;;20.13;18.03;;;;;6.80;97638.00;;;;5087095;28;20206;-69
2024/01/23 09:21:38;;;;;;;18.97;16.87;;;;;5.60;97632.00;;;;5084735;28;20234;-69
2024/01/23 09:24:27;;;;;;;29.23;19.83;;;;;6.60;97635.00;;;;5082851;28;20229;-69
2024/01/23 09:27:16;;;;;;;27.90;20.80;;;;;6.30;97635.00;;;;5083691;28;20207;-69
2024/01/23 09:30:08;;;;;;;18.70;16.83;;;;;6.40;97643.00;;;;5084503;28;20223;-69
2024/01/23 09:33:00;;;;;;;19.70;16.33;;;;;6.60;97654.00;;;;5082230;28;20766;-69
2024/01/23 09:35:49;;;;;;;17.33;14.90;;;;;4.80;97651.00;;;;5086651;28;20198;-69
2024/01/23 09:38:38;;;;;;;23.73;15.37;;;;;4.50;97655.00;;;;5082404;28;20215;-69
2024/01/23 09:41:28;;;;;;;24.17;15.53;;;;;5.20;97644.00;;;;5084061;28;20234;-69
2024/01/23 09:44:18;;;;;;;29.67;16.97;;;;;5.70;97641.00;;;;5083352;28;20212;-69
2024/01/23 09:47:09;;;;;;;15.27;13.23;;;;;6.10;97655.00;;;;5083382;28;20572;-69
2024/01/23 09:49:58;;;;;;;16.73;14.20;;;;;6.50;97649.00;;;;5079680;28;20224;-69
2024/01/23 09:52:48;;;;;;;15.53;13.77;;;;;6.50;97652.00;;;;5079900;28;20199;-69
2024/01/23 09:55:38;;;;;;;16.13;14.10;;;;;5.60;97660.00;;;;5079728;28;20669;-69
2024/01/23 09:58:27;;;;;;;28.00;19.00;;;;;5.80;97651.00;;;;5082245;28;20578;-69
2024/01/23 10:01:17;;;;;;;26.17;18.90;;;;;6.50;97674.00;;;;5082792;28;20245;-69
2024/01/23 10:04:08;;;;;;;18.97;17.37;;;;;6.80;97674.00;;;;5080735;28;20251;-69
2024/01/23 10:06:59;;;;;;;20.90;17.77;;;;;6.90;97660.00;;;;5082831;28;20222;-69
2024/01/23 10:09:49;;;;;;;22.80;20.53;;;;;7.40;97653.00;;;;5087856;28;20223;-69
2024/01/23 10:12:38;;;;;;;32.73;29.30;;;;;7.80;97663.00;;;;5085036;28;20578;-69
2024/01/23 10:15:27;;;;;;;36.90;30.00;;;;;7.60;97639.00;;;;5077681;28;20215;-69
2024/01/23 10:18:16;;;;;;;42.33;35.40;;;;;8.30;97660.00;;;;5077999;28;20756;-69
2024/01/23 10:21:07;;;;;;;49.60;41.60;;;;;8.20;97683.00;;;;5076414;28;20233;-69
2024/01/23 10:23:58;;;;;;;41.70;37.87;;;;;8.20;97672.00;;;;5080736;28;20199;-69
2024/01/23 10:26:48;;;;;;;39.87;36.20;;;;;8.20;97681.00;;;;5082174;28;20203;-69
2024/01/23 10:29:37;;;;;;;55.40;45.63;;;;;8.60;97677.00;;;;5081680;28;20614;-69
2024/01/23 10:32:26;;;;;;;61.93;48.87;;;;;9.20;97659.00;;;;5083948;28;20199;-70
2024/01/23 10:35:15;;;;;;;70.17;56.90;;;;;9.60;97658.00;;;;5089587;28;20210;-70
2024/01/23 10:38:06;;;;;;;70.40;61.10;;;;;10.50;97658.00;;;;5082899;28;20204;-70
2024/01/23 10:40:57;;;;;;;83.07;69.13;;;;;11.40;97662.00;;;;5081341;28;20227;-70
2024/01/23 10:43:48;;;;;;;94.07;76.43;;;;;12.60;97668.00;;;;5077213;28;20204;-71
2024/01/23 10:46:38;;;;;;;106.07;87.17;;;;;13.40;97672.00;;;;5080264;28;20202;-68
2024/01/23 10:49:27;;;;;;;134.53;103.23;;;;;13.80;97677.00;;;;5081094;28;20200;-70
2024/01/23 10:52:18;;;;;;;158.23;118.50;;;;;14.40;97660.00;;;;5080788;28;20203;-70
2024/01/23 10:55:09;;;;;;;164.00;127.30;;;;;14.80;97677.00;;;;5082788;28;20215;-70
2024/01/23 10:58:01;;;;;;;149.47;127.27;;;;;15.40;97680.00;;;;5085371;28;20214;-70
2024/01/23 11:00:51;;;;;;;160.60;133.90;;;;;15.90;97693.00;;;;5098609;22;20238;-87
2024/01/23 11:03:42;;;;;;;156.37;135.20;;;;;15.60;97699.00;;;;5094301;28;20210;-88
2024/01/23 11:06:34;;;;;;;190.30;157.37;;;;;15.80;97709.00;;;;5095217;28;20275;-89
2024/01/23 11:09:27;;;;;;;182.30;156.47;;;;;15.50;97688.00;;;;5091557;28;20493;-89
2024/01/23 11:12:23;;;;;;;182.37;159.77;;;;;15.60;97715.00;;;;5087944;28;20222;-88
2024/01/23 11:15:15;;;;;;;178.33;158.43;;;;;15.50;97718.00;;;;5099983;22;20240;-64
2024/01/23 11:18:25;;;;;;;177.30;154.80;;;;;15.40;97668.00;;;;5047569;27;20212;-65
2024/01/23 11:21:17;;;;;;;184.87;158.93;;;;;16.10;97685.00;;;;5040884;27;20279;-65
2024/01/23 11:24:07;;;;;;;189.87;168.33;;;;;16.00;97696.00;;;;5031125;27;20212;-65
2024/01/23 11:26:56;;;;;;;195.50;169.03;;;;;16.30;97702.00;;;;5049929;27;20197;-64
2024/01/23 11:29:47;;;;;;;198.80;174.40;;;;;16.00;97701.00;;;;5039285;27;20201;-64
2024/01/23 11:32:36;;;;;;;221.47;192.73;;;;;16.20;97721.00;;;;5033359;27;20201;-65
2024/01/23 11:35:26;;;;;;;224.13;198.27;;;;;15.80;97718.00;;;;5031072;27;20225;-64
2024/01/23 11:38:16;;;;;;;213.97;190.83;;;;;16.20;97690.00;;;;5034758;27;20215;-65
2024/01/23 11:41:16;;;;;;;215.00;191.40;;;;;16.70;97726.00;;;;5032032;27;20217;-64
2024/01/23 11:44:15;;;;;;;213.43;190.80;;;;;15.60;97720.00;;;;5032509;27;20690;-64
2024/01/23 11:47:06;;;;;;;205.60;184.73;;;;;14.20;97710.00;;;;5038610;27;20201;-64
2024/01/23 11:49:55;;;;;;;207.53;186.90;;;;;15.30;97709.00;;;;5052429;27;20201;-65
2024/01/23 11:52:50;;;;;;;194.97;174.77;;;;;15.70;97691.00;;;;5043179;27;20216;-65
2024/01/23 11:55:40;;;;;;;193.37;172.70;;;;;16.40;97744.00;;;;5038163;27;20877;-65
2024/01/23 11:58:29;;;;;;;203.57;181.63;;;;;16.50;97716.00;;;;5032927;27;20590;-65
2024/01/23 12:01:19;;;;;;;211.77;189.27;;;;;15.80;97709.00;;;;5034629;27;20228;-64
2024/01/23 12:04:10;;;;;;;195.00;174.67;;;;;16.40;97722.00;;;;5038237;27;20208;-65
2024/01/23 12:07:00;;;;;;;219.47;196.40;;;;;15.50;97742.00;;;;5036425;27;20218;-64
2024/01/23 12:09:49;;;;;;;198.47;178.63;;;;;14.90;97720.00;;;;5031472;27;20201;-65
2024/01/23 12:12:40;;;;;;;201.30;180.37;;;;;14.40;97745.00;;;;5034899;27;20211;-64
2024/01/23 12:15:29;;;;;;;195.43;173.73;;;;;16.10;97725.00;;;;5034809;27;20225;-64
2024/01/23 12:18:21;;;;;;;194.27;173.03;;;;;15.40;97722.00;;;;5038731;27;20950;-65
2024/01/23 12:21:11;;;;;;;204.53;175.30;;;;;15.90;97721.00;;;;5042183;27;20773;-65
2024/01/23 12:24:01;;;;;;;261.67;204.27;;;;;17.10;97721.00;;;;5043827;27;20209;-65
2024/01/23 12:26:51;;;;;;;278.60;201.83;;;;;16.50;97735.00;;;;5036268;27;20212;-64
2024/01/23 12:29:41;;;;;;;306.13;221.43;;;;;16.40;97717.00;;;;5041123;27;20208;-64
2024/01/23 12:32:31;;;;;;;336.40;232.87;;;;;17.40;97726.00;;;;5036298;27;20217;-65
2024/01/23 12:35:20;;;;;;;345.73;236.97;;;;;15.30;97725.00;;;;5040210;27;20236;-65
2024/01/23 12:38:11;;;;;;;333.83;230.67;;;;;15.50;97725.00;;;;5039996;27;20606;-67
2024/01/23 12:41:01;;;;;;;328.87;222.37;;;;;13.70;97718.00;;;;5036681;27;20221;-64
2024/01/23 12:43:51;;;;;;;319.10;208.73;;;;;15.60;97717.00;;;;5036875;27;20204;-65
2024/01/23 12:46:40;;;;;;;314.60;204.07;;;;;13.50;97759.00;;;;5040865;27;20200;-66
2024/01/23 12:49:29;;;;;;;303.73;195.17;;;;;13.70;97713.00;;;;5040029;27;20227;-64
2024/01/23 12:52:19;;;;;;;306.40;189.60;;;;;13.90;97695.00;;;;5035964;27;20208;-64
2024/01/23 12:55:10;;;;;;;311.93;185.93;;;;;13.20;97748.00;;;;5036857;27;20204;-65
2024/01/23 12:57:59;;;;;;;294.77;163.53;;;;;11.90;97736.00;;;;5033571;27;20202;-64
2024/01/23 13:00:49;;;;;;;308.80;160.93;;;;;12.10;97712.00;;;;5039871;27;20227;-66
2024/01/23 13:03:38;;;;;;;301.07;152.67;;;;;11.30;97783.00;;;;5033707;27;20851;-69
2024/01/23 13:06:28;;;;;;;279.73;150.00;;;;;11.60;97757.00;;;;5034304;27;20198;-62
2024/01/23 13:09:17;;;;;;;235.47;133.00;;;;;11.40;97782.00;;;;5040936;27;20231;-64
2024/01/23 13:12:09;;;;;;;210.53;122.20;;;;;11.80;97784.00;;;;5036869;27;20632;-64
2024/01/23 13:14:58;;;;;;;217.67;126.57;;;;;12.40;97788.00;;;;5035526;27;20246;-64
2024/01/23 13:17:48;;;;;;;209.43;120.53;;;;;11.20;97797.00;;;;5040154;27;20208;-65
2024/01/23 13:20:37;;;;;;;201.17;116.77;;;;;10.10;97790.00;;;;5036747;27;20225;-66
2024/01/23 13:23:26;;;;;;;201.87;118.03;;;;;10.50;97786.00;;;;5036008;27;20215;-63
2024/01/23 13:26:15;;;;;;;190.20;110.33;;;;;10.20;97795.00;;;;5037505;27;20202;-67
2024/01/23 13:29:08;;;;;;;184.60;102.70;;;;;10.80;97800.00;;;;5046949;27;20209;-63
2024/01/23 13:31:57;;;;;;;185.50;100.90;;;;;11.10;97818.00;;;;5042832;27;20221;-64
2024/01/23 13:34:46;;;;;;;203.60;104.33;;;;;12.90;97759.00;;;;5043062;27;20594;-63
2024/01/23 13:37:36;;;;;;;224.57;109.17;;;;;12.30;97749.00;;;;5038948;27;20227;-69
2024/01/23 13:40:25;;;;;;;254.83;117.13;;;;;14.60;97759.00;;;;5046230;27;20716;-63
2024/01/23 13:43:14;;;;;;;306.83;132.63;;;;;16.20;97779.00;;;;5042169;27;20227;-63
2024/01/23 13:46:05;;;;;;;348.83;143.83;;;;;17.30;97768.00;;;;5044956;27;20197;-64